sensor_id;sensor_type;location;lat;lon;timestamp;P1;durP1;ratioP1;P2;durP2;ratioP2
13795;SDS011;40911;51.552;9.874;2023-02-15T00:01:57;19.98;;;12.88;;
13795;SDS011;40911;51.552;9.874;2023-02-15T00:04:20;18.52;;;11.75;;
13795;SDS011;40911;51.552;9.874;2023-02-15T00:06:43;17.77;;;12.07;;
13795;SDS011;40911;51.552;9.874;2023-02-15T00:09:05;19.02;;;11.98;;
13795;SDS011;40911;51.552;9.874;2023-02-15T00:14:12;19.25;;;12.40;;
13795;SDS011;40911;51.552;9.874;2023-02-15T00:16:35;17.83;;;11.98;;
13795;SDS011;40911;51.552;9.874;2023-02-15T00:18:58;19.95;;;11.90;;
13795;SDS011;40911;51.552;9.874;2023-02-15T00:21:21;19.30;;;12.43;;
13795;SDS011;40911;51.552;9.874;2023-02-15T00:23:43;18.02;;;12.15;;
13795;SDS011;40911;51.552;9.874;2023-02-15T00:26:05;20.73;;;12.45;;
13795;SDS011;40911;51.552;9.874;2023-02-15T00:28:28;18.20;;;12.48;;
13795;SDS011;40911;51.552;9.874;2023-02-15T00:30:52;20.90;;;12.23;;
13795;SDS011;40911;51.552;9.874;2023-02-15T00:33:14;18.38;;;12.68;;
13795;SDS011;40911;51.552;9.874;2023-02-15T00:35:35;19.00;;;13.02;;
13795;SDS011;40911;51.552;9.874;2023-02-15T00:37:57;16.67;;;11.68;;
13795;SDS011;40911;51.552;9.874;2023-02-15T00:40:18;17.75;;;11.90;;
13795;SDS011;40911;51.552;9.874;2023-02-15T00:42:40;17.02;;;12.10;;
13795;SDS011;40911;51.552;9.874;2023-02-15T00:45:02;21.00;;;13.45;;
13795;SDS011;40911;51.552;9.874;2023-02-15T00:49:46;18.70;;;12.20;;
13795;SDS011;40911;51.552;9.874;2023-02-15T00:52:08;27.83;;;14.63;;
13795;SDS011;40911;51.552;9.874;2023-02-15T00:54:29;21.13;;;13.27;;
13795;SDS011;40911;51.552;9.874;2023-02-15T00:56:51;22.67;;;13.80;;
13795;SDS011;40911;51.552;9.874;2023-02-15T00:59:13;19.77;;;12.73;;
13795;SDS011;40911;51.552;9.874;2023-02-15T01:03:57;19.80;;;12.18;;
13795;SDS011;40911;51.552;9.874;2023-02-15T01:06:19;20.58;;;13.02;;
13795;SDS011;40911;51.552;9.874;2023-02-15T01:08:40;21.77;;;13.65;;
13795;SDS011;40911;51.552;9.874;2023-02-15T01:13:24;24.05;;;13.48;;
13795;SDS011;40911;51.552;9.874;2023-02-15T01:15:51;24.65;;;14.90;;
13795;SDS011;40911;51.552;9.874;2023-02-15T01:18:14;30.50;;;13.88;;
13795;SDS011;40911;51.552;9.874;2023-02-15T01:20:38;33.03;;;14.38;;
13795;SDS011;40911;51.552;9.874;2023-02-15T01:23:01;42.47;;;14.13;;
13795;SDS011;40911;51.552;9.874;2023-02-15T01:25:24;28.73;;;13.63;;
13795;SDS011;40911;51.552;9.874;2023-02-15T01:27:46;24.45;;;14.57;;
13795;SDS011;40911;51.552;9.874;2023-02-15T01:34:52;20.58;;;12.48;;
13795;SDS011;40911;51.552;9.874;2023-02-15T01:37:15;24.30;;;13.48;;
13795;SDS011;40911;51.552;9.874;2023-02-15T01:39:36;25.83;;;14.27;;
13795;SDS011;40911;51.552;9.874;2023-02-15T01:41:58;23.88;;;13.57;;
13795;SDS011;40911;51.552;9.874;2023-02-15T01:47:09;34.47;;;13.40;;
13795;SDS011;40911;51.552;9.874;2023-02-15T01:49:33;40.55;;;14.32;;
13795;SDS011;40911;51.552;9.874;2023-02-15T01:51:55;24.80;;;13.43;;
13795;SDS011;40911;51.552;9.874;2023-02-15T01:54:19;23.70;;;12.80;;
13795;SDS011;40911;51.552;9.874;2023-02-15T01:56:45;23.88;;;13.15;;
13795;SDS011;40911;51.552;9.874;2023-02-15T01:59:09;17.88;;;11.93;;
13795;SDS011;40911;51.552;9.874;2023-02-15T02:01:34;21.48;;;12.25;;
13795;SDS011;40911;51.552;9.874;2023-02-15T02:03:57;22.27;;;12.35;;
13795;SDS011;40911;51.552;9.874;2023-02-15T02:06:24;19.83;;;12.18;;
13795;SDS011;40911;51.552;9.874;2023-02-15T02:08:47;22.42;;;12.07;;
13795;SDS011;40911;51.552;9.874;2023-02-15T02:11:11;21.13;;;12.45;;
13795;SDS011;40911;51.552;9.874;2023-02-15T02:13:34;24.88;;;13.43;;
13795;SDS011;40911;51.552;9.874;2023-02-15T02:15:57;20.00;;;12.80;;
13795;SDS011;40911;51.552;9.874;2023-02-15T02:18:29;21.10;;;12.00;;
13795;SDS011;40911;51.552;9.874;2023-02-15T02:21:06;23.40;;;13.07;;
13795;SDS011;40911;51.552;9.874;2023-02-15T02:23:51;20.05;;;12.95;;
13795;SDS011;40911;51.552;9.874;2023-02-15T02:29:50;20.30;;;12.50;;
13795;SDS011;40911;51.552;9.874;2023-02-15T02:35:29;19.73;;;12.23;;
13795;SDS011;40911;51.552;9.874;2023-02-15T02:37:56;20.02;;;12.27;;
13795;SDS011;40911;51.552;9.874;2023-02-15T02:40:25;15.57;;;11.18;;
13795;SDS011;40911;51.552;9.874;2023-02-15T02:42:54;18.23;;;11.30;;
13795;SDS011;40911;51.552;9.874;2023-02-15T02:45:22;15.52;;;11.40;;
13795;SDS011;40911;51.552;9.874;2023-02-15T02:47:48;17.45;;;11.50;;
13795;SDS011;40911;51.552;9.874;2023-02-15T02:50:17;17.77;;;11.77;;
13795;SDS011;40911;51.552;9.874;2023-02-15T02:52:43;15.73;;;10.73;;
13795;SDS011;40911;51.552;9.874;2023-02-15T02:55:07;15.45;;;10.93;;
13795;SDS011;40911;51.552;9.874;2023-02-15T02:57:32;16.95;;;11.50;;
13795;SDS011;40911;51.552;9.874;2023-02-15T02:59:56;19.42;;;11.50;;
13795;SDS011;40911;51.552;9.874;2023-02-15T03:02:21;17.67;;;10.98;;
13795;SDS011;40911;51.552;9.874;2023-02-15T03:04:45;17.65;;;11.10;;
13795;SDS011;40911;51.552;9.874;2023-02-15T03:07:12;17.30;;;11.00;;
13795;SDS011;40911;51.552;9.874;2023-02-15T03:09:38;17.48;;;11.73;;
13795;SDS011;40911;51.552;9.874;2023-02-15T03:12:02;19.23;;;12.23;;
13795;SDS011;40911;51.552;9.874;2023-02-15T03:14:24;20.27;;;11.65;;
13795;SDS011;40911;51.552;9.874;2023-02-15T03:16:47;29.92;;;12.52;;
13795;SDS011;40911;51.552;9.874;2023-02-15T03:19:10;24.25;;;12.30;;
13795;SDS011;40911;51.552;9.874;2023-02-15T03:21:36;24.80;;;12.15;;
13795;SDS011;40911;51.552;9.874;2023-02-15T03:24:05;24.30;;;12.70;;
13795;SDS011;40911;51.552;9.874;2023-02-15T03:26:30;19.55;;;11.85;;
13795;SDS011;40911;51.552;9.874;2023-02-15T03:28:55;18.60;;;12.43;;
13795;SDS011;40911;51.552;9.874;2023-02-15T03:31:20;24.77;;;11.75;;
13795;SDS011;40911;51.552;9.874;2023-02-15T03:33:46;20.98;;;11.90;;
13795;SDS011;40911;51.552;9.874;2023-02-15T03:36:11;26.02;;;12.68;;
13795;SDS011;40911;51.552;9.874;2023-02-15T03:38:40;22.60;;;12.02;;
13795;SDS011;40911;51.552;9.874;2023-02-15T03:41:07;23.85;;;12.25;;
13795;SDS011;40911;51.552;9.874;2023-02-15T03:43:34;22.65;;;12.73;;
13795;SDS011;40911;51.552;9.874;2023-02-15T03:46:05;27.85;;;12.75;;
13795;SDS011;40911;51.552;9.874;2023-02-15T03:48:29;27.77;;;12.88;;
13795;SDS011;40911;51.552;9.874;2023-02-15T03:50:54;27.33;;;12.63;;
13795;SDS011;40911;51.552;9.874;2023-02-15T03:53:36;20.85;;;11.90;;
13795;SDS011;40911;51.552;9.874;2023-02-15T03:55:59;33.60;;;11.63;;
13795;SDS011;40911;51.552;9.874;2023-02-15T03:58:22;24.65;;;12.52;;
13795;SDS011;40911;51.552;9.874;2023-02-15T04:01:05;31.92;;;12.52;;
13795;SDS011;40911;51.552;9.874;2023-02-15T04:03:53;23.30;;;11.93;;
13795;SDS011;40911;51.552;9.874;2023-02-15T04:06:18;33.50;;;12.20;;
13795;SDS011;40911;51.552;9.874;2023-02-15T04:08:40;21.77;;;11.70;;
13795;SDS011;40911;51.552;9.874;2023-02-15T04:11:15;23.08;;;11.63;;
13795;SDS011;40911;51.552;9.874;2023-02-15T04:13:38;22.23;;;12.00;;
13795;SDS011;40911;51.552;9.874;2023-02-15T04:16:01;25.77;;;11.85;;
13795;SDS011;40911;51.552;9.874;2023-02-15T04:18:25;29.48;;;12.13;;
13795;SDS011;40911;51.552;9.874;2023-02-15T04:21:05;23.98;;;13.00;;
13795;SDS011;40911;51.552;9.874;2023-02-15T04:23:44;18.90;;;11.55;;
13795;SDS011;40911;51.552;9.874;2023-02-15T04:26:23;46.17;;;13.00;;
13795;SDS011;40911;51.552;9.874;2023-02-15T04:28:46;28.02;;;12.35;;
13795;SDS011;40911;51.552;9.874;2023-02-15T04:31:07;37.05;;;13.77;;
13795;SDS011;40911;51.552;9.874;2023-02-15T04:33:29;30.58;;;12.88;;
13795;SDS011;40911;51.552;9.874;2023-02-15T04:35:50;30.15;;;13.27;;
13795;SDS011;40911;51.552;9.874;2023-02-15T04:38:12;29.00;;;13.13;;
13795;SDS011;40911;51.552;9.874;2023-02-15T04:40:34;29.45;;;13.32;;
13795;SDS011;40911;51.552;9.874;2023-02-15T04:42:55;33.55;;;13.43;;
13795;SDS011;40911;51.552;9.874;2023-02-15T04:45:18;33.03;;;12.73;;
13795;SDS011;40911;51.552;9.874;2023-02-15T04:47:40;26.58;;;12.80;;
13795;SDS011;40911;51.552;9.874;2023-02-15T04:50:02;29.58;;;12.52;;
13795;SDS011;40911;51.552;9.874;2023-02-15T04:52:24;34.50;;;12.70;;
13795;SDS011;40911;51.552;9.874;2023-02-15T04:57:07;32.90;;;13.30;;
13795;SDS011;40911;51.552;9.874;2023-02-15T04:59:30;24.35;;;12.43;;
13795;SDS011;40911;51.552;9.874;2023-02-15T05:01:53;24.60;;;12.60;;
13795;SDS011;40911;51.552;9.874;2023-02-15T05:04:15;33.55;;;12.32;;
13795;SDS011;40911;51.552;9.874;2023-02-15T05:06:36;38.83;;;13.40;;
13795;SDS011;40911;51.552;9.874;2023-02-15T05:08:58;26.48;;;12.75;;
13795;SDS011;40911;51.552;9.874;2023-02-15T05:11:19;40.10;;;13.30;;
13795;SDS011;40911;51.552;9.874;2023-02-15T05:13:41;34.83;;;12.73;;
13795;SDS011;40911;51.552;9.874;2023-02-15T05:16:03;37.58;;;13.55;;
13795;SDS011;40911;51.552;9.874;2023-02-15T05:18:26;25.58;;;12.95;;
13795;SDS011;40911;51.552;9.874;2023-02-15T05:20:48;28.80;;;13.05;;
13795;SDS011;40911;51.552;9.874;2023-02-15T05:23:09;36.08;;;14.35;;
13795;SDS011;40911;51.552;9.874;2023-02-15T05:25:31;26.05;;;12.45;;
13795;SDS011;40911;51.552;9.874;2023-02-15T05:28:10;23.33;;;12.68;;
13795;SDS011;40911;51.552;9.874;2023-02-15T05:30:41;24.40;;;12.87;;
13795;SDS011;40911;51.552;9.874;2023-02-15T05:33:03;20.90;;;11.20;;
13795;SDS011;40911;51.552;9.874;2023-02-15T05:35:26;22.95;;;12.48;;
13795;SDS011;40911;51.552;9.874;2023-02-15T05:37:47;24.45;;;13.43;;
13795;SDS011;40911;51.552;9.874;2023-02-15T05:40:09;22.25;;;12.52;;
13795;SDS011;40911;51.552;9.874;2023-02-15T05:42:32;40.85;;;12.55;;
13795;SDS011;40911;51.552;9.874;2023-02-15T05:44:53;30.20;;;12.80;;
13795;SDS011;40911;51.552;9.874;2023-02-15T05:47:15;33.80;;;13.00;;
13795;SDS011;40911;51.552;9.874;2023-02-15T05:49:37;34.22;;;13.77;;
13795;SDS011;40911;51.552;9.874;2023-02-15T05:52:00;23.20;;;12.63;;
13795;SDS011;40911;51.552;9.874;2023-02-15T05:54:21;39.28;;;13.05;;
13795;SDS011;40911;51.552;9.874;2023-02-15T05:56:43;30.85;;;12.30;;
13795;SDS011;40911;51.552;9.874;2023-02-15T05:59:05;33.88;;;12.70;;
13795;SDS011;40911;51.552;9.874;2023-02-15T06:01:26;25.15;;;12.60;;
13795;SDS011;40911;51.552;9.874;2023-02-15T06:03:48;30.05;;;13.43;;
13795;SDS011;40911;51.552;9.874;2023-02-15T06:06:10;24.33;;;12.13;;
13795;SDS011;40911;51.552;9.874;2023-02-15T06:08:33;30.15;;;12.00;;
13795;SDS011;40911;51.552;9.874;2023-02-15T06:10:55;25.55;;;13.07;;
13795;SDS011;40911;51.552;9.874;2023-02-15T06:13:17;26.17;;;12.13;;
13795;SDS011;40911;51.552;9.874;2023-02-15T06:18:00;22.98;;;12.25;;
13795;SDS011;40911;51.552;9.874;2023-02-15T06:20:22;22.83;;;12.18;;
13795;SDS011;40911;51.552;9.874;2023-02-15T06:22:43;22.15;;;11.75;;
13795;SDS011;40911;51.552;9.874;2023-02-15T06:25:07;21.67;;;11.70;;
13795;SDS011;40911;51.552;9.874;2023-02-15T06:27:30;26.42;;;12.38;;
13795;SDS011;40911;51.552;9.874;2023-02-15T06:29:51;29.60;;;11.65;;
13795;SDS011;40911;51.552;9.874;2023-02-15T06:32:13;28.17;;;11.45;;
13795;SDS011;40911;51.552;9.874;2023-02-15T06:34:34;21.73;;;11.52;;
13795;SDS011;40911;51.552;9.874;2023-02-15T06:36:56;25.35;;;12.75;;
13795;SDS011;40911;51.552;9.874;2023-02-15T06:39:18;24.13;;;12.57;;
13795;SDS011;40911;51.552;9.874;2023-02-15T06:41:41;27.80;;;11.88;;
13795;SDS011;40911;51.552;9.874;2023-02-15T06:44:03;32.30;;;12.73;;
13795;SDS011;40911;51.552;9.874;2023-02-15T06:46:25;22.95;;;12.18;;
13795;SDS011;40911;51.552;9.874;2023-02-15T06:48:46;26.65;;;12.60;;
13795;SDS011;40911;51.552;9.874;2023-02-15T06:51:08;26.48;;;13.10;;
13795;SDS011;40911;51.552;9.874;2023-02-15T06:53:29;24.50;;;13.07;;
13795;SDS011;40911;51.552;9.874;2023-02-15T06:55:51;27.70;;;12.98;;
13795;SDS011;40911;51.552;9.874;2023-02-15T06:58:14;26.88;;;12.77;;
13795;SDS011;40911;51.552;9.874;2023-02-15T07:00:36;30.95;;;12.73;;
13795;SDS011;40911;51.552;9.874;2023-02-15T07:02:57;29.17;;;13.60;;
13795;SDS011;40911;51.552;9.874;2023-02-15T07:05:19;30.42;;;12.80;;
13795;SDS011;40911;51.552;9.874;2023-02-15T07:07:41;27.20;;;13.25;;
13795;SDS011;40911;51.552;9.874;2023-02-15T07:10:03;22.38;;;12.00;;
13795;SDS011;40911;51.552;9.874;2023-02-15T07:12:25;24.98;;;13.13;;
13795;SDS011;40911;51.552;9.874;2023-02-15T07:15:04;20.83;;;12.85;;
13795;SDS011;40911;51.552;9.874;2023-02-15T07:17:26;21.17;;;12.88;;
13795;SDS011;40911;51.552;9.874;2023-02-15T07:19:49;21.85;;;13.25;;
13795;SDS011;40911;51.552;9.874;2023-02-15T07:22:11;25.38;;;12.52;;
13795;SDS011;40911;51.552;9.874;2023-02-15T07:24:33;23.50;;;12.60;;
13795;SDS011;40911;51.552;9.874;2023-02-15T07:26:54;21.65;;;13.45;;
13795;SDS011;40911;51.552;9.874;2023-02-15T07:29:17;23.90;;;14.18;;
13795;SDS011;40911;51.552;9.874;2023-02-15T07:34:03;19.50;;;12.35;;
13795;SDS011;40911;51.552;9.874;2023-02-15T07:36:26;23.77;;;13.18;;
13795;SDS011;40911;51.552;9.874;2023-02-15T07:38:48;22.95;;;13.30;;
13795;SDS011;40911;51.552;9.874;2023-02-15T07:41:10;22.30;;;13.85;;
13795;SDS011;40911;51.552;9.874;2023-02-15T07:43:34;24.00;;;14.23;;
13795;SDS011;40911;51.552;9.874;2023-02-15T07:45:58;26.80;;;14.25;;
13795;SDS011;40911;51.552;9.874;2023-02-15T07:48:21;22.25;;;13.43;;
13795;SDS011;40911;51.552;9.874;2023-02-15T07:50:43;25.63;;;14.23;;
13795;SDS011;40911;51.552;9.874;2023-02-15T07:53:04;24.65;;;13.95;;
13795;SDS011;40911;51.552;9.874;2023-02-15T07:55:26;24.42;;;13.50;;
13795;SDS011;40911;51.552;9.874;2023-02-15T07:57:48;20.48;;;13.15;;
13795;SDS011;40911;51.552;9.874;2023-02-15T08:00:11;21.95;;;12.57;;
13795;SDS011;40911;51.552;9.874;2023-02-15T08:02:34;24.63;;;14.07;;
13795;SDS011;40911;51.552;9.874;2023-02-15T08:04:58;23.85;;;13.65;;
13795;SDS011;40911;51.552;9.874;2023-02-15T08:07:20;28.30;;;15.02;;
13795;SDS011;40911;51.552;9.874;2023-02-15T08:09:41;24.80;;;14.77;;
13795;SDS011;40911;51.552;9.874;2023-02-15T08:12:03;23.15;;;13.48;;
13795;SDS011;40911;51.552;9.874;2023-02-15T08:14:26;23.80;;;14.35;;
13795;SDS011;40911;51.552;9.874;2023-02-15T08:16:49;23.50;;;14.32;;
13795;SDS011;40911;51.552;9.874;2023-02-15T08:19:12;22.73;;;14.63;;
13795;SDS011;40911;51.552;9.874;2023-02-15T08:21:37;23.38;;;14.35;;
13795;SDS011;40911;51.552;9.874;2023-02-15T08:24:01;24.48;;;14.93;;
13795;SDS011;40911;51.552;9.874;2023-02-15T08:26:24;23.90;;;14.80;;
13795;SDS011;40911;51.552;9.874;2023-02-15T08:28:46;22.08;;;13.80;;
13795;SDS011;40911;51.552;9.874;2023-02-15T08:31:09;23.38;;;15.10;;
13795;SDS011;40911;51.552;9.874;2023-02-15T08:33:33;21.75;;;13.00;;
13795;SDS011;40911;51.552;9.874;2023-02-15T08:38:17;24.48;;;13.50;;
13795;SDS011;40911;51.552;9.874;2023-02-15T08:40:39;25.10;;;13.65;;
13795;SDS011;40911;51.552;9.874;2023-02-15T08:43:01;23.30;;;13.85;;
13795;SDS011;40911;51.552;9.874;2023-02-15T08:45:22;22.10;;;14.10;;
13795;SDS011;40911;51.552;9.874;2023-02-15T08:47:45;23.48;;;14.00;;
13795;SDS011;40911;51.552;9.874;2023-02-15T08:50:07;20.42;;;13.13;;
13795;SDS011;40911;51.552;9.874;2023-02-15T08:52:29;21.00;;;12.40;;
13795;SDS011;40911;51.552;9.874;2023-02-15T08:54:52;19.33;;;12.23;;
13795;SDS011;40911;51.552;9.874;2023-02-15T08:57:13;21.23;;;12.80;;
13795;SDS011;40911;51.552;9.874;2023-02-15T08:59:35;20.50;;;13.05;;
13795;SDS011;40911;51.552;9.874;2023-02-15T09:04:18;20.08;;;12.23;;
13795;SDS011;40911;51.552;9.874;2023-02-15T09:06:42;19.80;;;12.10;;
13795;SDS011;40911;51.552;9.874;2023-02-15T09:09:05;21.20;;;12.68;;
13795;SDS011;40911;51.552;9.874;2023-02-15T09:11:29;20.25;;;12.95;;
13795;SDS011;40911;51.552;9.874;2023-02-15T09:13:52;20.65;;;12.38;;
13795;SDS011;40911;51.552;9.874;2023-02-15T09:16:15;21.92;;;12.50;;
13795;SDS011;40911;51.552;9.874;2023-02-15T09:21:04;19.40;;;12.25;;
13795;SDS011;40911;51.552;9.874;2023-02-15T09:23:27;20.30;;;12.45;;
13795;SDS011;40911;51.552;9.874;2023-02-15T09:25:49;18.13;;;12.13;;
13795;SDS011;40911;51.552;9.874;2023-02-15T09:28:12;17.27;;;11.43;;
13795;SDS011;40911;51.552;9.874;2023-02-15T09:30:34;23.33;;;12.70;;
13795;SDS011;40911;51.552;9.874;2023-02-15T09:32:56;17.38;;;12.38;;
13795;SDS011;40911;51.552;9.874;2023-02-15T09:35:17;19.85;;;12.63;;
13795;SDS011;40911;51.552;9.874;2023-02-15T09:37:39;19.10;;;13.05;;
13795;SDS011;40911;51.552;9.874;2023-02-15T09:40:00;20.92;;;13.38;;
13795;SDS011;40911;51.552;9.874;2023-02-15T09:42:29;19.52;;;13.18;;
13795;SDS011;40911;51.552;9.874;2023-02-15T09:45:13;19.73;;;13.50;;
13795;SDS011;40911;51.552;9.874;2023-02-15T09:47:49;21.52;;;13.48;;
13795;SDS011;40911;51.552;9.874;2023-02-15T09:50:24;19.30;;;13.50;;
13795;SDS011;40911;51.552;9.874;2023-02-15T09:52:54;17.17;;;12.55;;
13795;SDS011;40911;51.552;9.874;2023-02-15T09:55:35;18.80;;;12.38;;
13795;SDS011;40911;51.552;9.874;2023-02-15T09:58:08;17.98;;;12.40;;
13795;SDS011;40911;51.552;9.874;2023-02-15T10:00:40;17.70;;;12.13;;
13795;SDS011;40911;51.552;9.874;2023-02-15T10:03:13;16.38;;;12.27;;
13795;SDS011;40911;51.552;9.874;2023-02-15T10:05:50;19.25;;;12.45;;
13795;SDS011;40911;51.552;9.874;2023-02-15T10:08:21;15.63;;;11.82;;
13795;SDS011;40911;51.552;9.874;2023-02-15T10:10:54;18.85;;;12.80;;
13795;SDS011;40911;51.552;9.874;2023-02-15T10:13:44;17.38;;;12.57;;
13795;SDS011;40911;51.552;9.874;2023-02-15T10:16:17;16.98;;;12.45;;
13795;SDS011;40911;51.552;9.874;2023-02-15T10:18:49;18.60;;;11.70;;
13795;SDS011;40911;51.552;9.874;2023-02-15T10:21:19;15.18;;;11.18;;
13795;SDS011;40911;51.552;9.874;2023-02-15T10:23:54;15.55;;;11.38;;
13795;SDS011;40911;51.552;9.874;2023-02-15T10:26:31;16.92;;;11.77;;
13795;SDS011;40911;51.552;9.874;2023-02-15T10:28:59;15.60;;;11.65;;
13795;SDS011;40911;51.552;9.874;2023-02-15T10:31:26;15.85;;;10.95;;
13795;SDS011;40911;51.552;9.874;2023-02-15T10:33:52;14.63;;;11.38;;
13795;SDS011;40911;51.552;9.874;2023-02-15T10:36:28;17.38;;;11.93;;
13795;SDS011;40911;51.552;9.874;2023-02-15T10:42:26;16.02;;;11.13;;
13795;SDS011;40911;51.552;9.874;2023-02-15T10:44:59;15.50;;;11.27;;
13795;SDS011;40911;51.552;9.874;2023-02-15T10:47:45;18.25;;;10.88;;
13795;SDS011;40911;51.552;9.874;2023-02-15T10:50:24;16.58;;;11.35;;
13795;SDS011;40911;51.552;9.874;2023-02-15T10:52:54;15.00;;;10.40;;
13795;SDS011;40911;51.552;9.874;2023-02-15T10:55:29;15.95;;;11.02;;
13795;SDS011;40911;51.552;9.874;2023-02-15T10:58:04;14.38;;;10.30;;
13795;SDS011;40911;51.552;9.874;2023-02-15T11:00:35;17.73;;;10.35;;
13795;SDS011;40911;51.552;9.874;2023-02-15T11:03:18;14.77;;;10.48;;
13795;SDS011;40911;51.552;9.874;2023-02-15T11:05:52;14.32;;;10.93;;
13795;SDS011;40911;51.552;9.874;2023-02-15T11:08:22;11.82;;;9.65;;
13795;SDS011;40911;51.552;9.874;2023-02-15T11:10:47;14.82;;;9.95;;
13795;SDS011;40911;51.552;9.874;2023-02-15T11:13:13;14.63;;;10.93;;
13795;SDS011;40911;51.552;9.874;2023-02-15T11:15:38;14.30;;;10.52;;
13795;SDS011;40911;51.552;9.874;2023-02-15T11:18:05;14.13;;;10.30;;
13795;SDS011;40911;51.552;9.874;2023-02-15T11:20:35;13.15;;;10.23;;
13795;SDS011;40911;51.552;9.874;2023-02-15T11:22:59;16.33;;;10.15;;
13795;SDS011;40911;51.552;9.874;2023-02-15T11:25:23;15.32;;;10.55;;
13795;SDS011;40911;51.552;9.874;2023-02-15T11:27:49;14.82;;;10.75;;
13795;SDS011;40911;51.552;9.874;2023-02-15T11:30:13;13.27;;;10.18;;
13795;SDS011;40911;51.552;9.874;2023-02-15T11:32:38;11.95;;;9.40;;
13795;SDS011;40911;51.552;9.874;2023-02-15T11:35:18;14.15;;;10.40;;
13795;SDS011;40911;51.552;9.874;2023-02-15T11:37:44;13.40;;;9.13;;
13795;SDS011;40911;51.552;9.874;2023-02-15T11:40:14;13.30;;;9.95;;
13795;SDS011;40911;51.552;9.874;2023-02-15T11:42:40;13.43;;;10.25;;
13795;SDS011;40911;51.552;9.874;2023-02-15T11:45:04;14.40;;;10.55;;
13795;SDS011;40911;51.552;9.874;2023-02-15T11:47:38;13.98;;;9.95;;
13795;SDS011;40911;51.552;9.874;2023-02-15T11:49:59;11.13;;;8.82;;
13795;SDS011;40911;51.552;9.874;2023-02-15T11:52:22;13.43;;;9.57;;
13795;SDS011;40911;51.552;9.874;2023-02-15T11:54:45;13.15;;;10.18;;
13795;SDS011;40911;51.552;9.874;2023-02-15T11:57:11;14.10;;;9.88;;
13795;SDS011;40911;51.552;9.874;2023-02-15T11:59:38;13.93;;;9.45;;
13795;SDS011;40911;51.552;9.874;2023-02-15T12:02:07;17.23;;;10.48;;
13795;SDS011;40911;51.552;9.874;2023-02-15T12:04:38;13.80;;;9.88;;
13795;SDS011;40911;51.552;9.874;2023-02-15T12:07:04;14.65;;;10.27;;
13795;SDS011;40911;51.552;9.874;2023-02-15T12:09:37;16.53;;;10.90;;
13795;SDS011;40911;51.552;9.874;2023-02-15T12:12:21;14.05;;;10.48;;
13795;SDS011;40911;51.552;9.874;2023-02-15T12:14:46;15.02;;;10.02;;
13795;SDS011;40911;51.552;9.874;2023-02-15T12:17:12;15.38;;;10.75;;
13795;SDS011;40911;51.552;9.874;2023-02-15T12:19:36;13.85;;;10.07;;
13795;SDS011;40911;51.552;9.874;2023-02-15T12:22:01;15.23;;;10.40;;
13795;SDS011;40911;51.552;9.874;2023-02-15T12:24:25;14.57;;;10.15;;
13795;SDS011;40911;51.552;9.874;2023-02-15T12:26:57;14.85;;;10.52;;
13795;SDS011;40911;51.552;9.874;2023-02-15T12:29:21;16.58;;;10.82;;
13795;SDS011;40911;51.552;9.874;2023-02-15T12:31:48;12.82;;;9.52;;
13795;SDS011;40911;51.552;9.874;2023-02-15T12:34:12;15.00;;;9.90;;
13795;SDS011;40911;51.552;9.874;2023-02-15T12:36:40;15.68;;;10.70;;
13795;SDS011;40911;51.552;9.874;2023-02-15T12:39:15;15.43;;;10.35;;
13795;SDS011;40911;51.552;9.874;2023-02-15T12:41:40;12.70;;;8.88;;
13795;SDS011;40911;51.552;9.874;2023-02-15T12:44:09;13.18;;;9.40;;
13795;SDS011;40911;51.552;9.874;2023-02-15T12:46:38;14.80;;;9.55;;
13795;SDS011;40911;51.552;9.874;2023-02-15T12:49:07;13.77;;;9.82;;
13795;SDS011;40911;51.552;9.874;2023-02-15T12:51:45;13.57;;;9.02;;
13795;SDS011;40911;51.552;9.874;2023-02-15T12:54:15;13.23;;;9.57;;
13795;SDS011;40911;51.552;9.874;2023-02-15T12:56:51;14.60;;;10.68;;
13795;SDS011;40911;51.552;9.874;2023-02-15T12:59:14;14.10;;;9.50;;
13795;SDS011;40911;51.552;9.874;2023-02-15T13:01:36;16.23;;;10.02;;
13795;SDS011;40911;51.552;9.874;2023-02-15T13:03:58;13.48;;;9.68;;
13795;SDS011;40911;51.552;9.874;2023-02-15T13:06:22;12.20;;;9.25;;
13795;SDS011;40911;51.552;9.874;2023-02-15T13:08:45;11.90;;;8.88;;
13795;SDS011;40911;51.552;9.874;2023-02-15T13:11:10;13.63;;;8.85;;
13795;SDS011;40911;51.552;9.874;2023-02-15T13:13:33;15.60;;;9.73;;
13795;SDS011;40911;51.552;9.874;2023-02-15T13:15:58;13.98;;;8.55;;
13795;SDS011;40911;51.552;9.874;2023-02-15T13:18:25;12.32;;;8.68;;
13795;SDS011;40911;51.552;9.874;2023-02-15T13:20:51;12.27;;;8.40;;
13795;SDS011;40911;51.552;9.874;2023-02-15T13:23:19;12.25;;;8.82;;
13795;SDS011;40911;51.552;9.874;2023-02-15T13:25:48;12.88;;;8.50;;
13795;SDS011;40911;51.552;9.874;2023-02-15T13:28:12;11.82;;;8.95;;
13795;SDS011;40911;51.552;9.874;2023-02-15T13:30:36;12.02;;;8.40;;
13795;SDS011;40911;51.552;9.874;2023-02-15T13:33:02;14.30;;;8.75;;
13795;SDS011;40911;51.552;9.874;2023-02-15T13:35:25;10.90;;;8.32;;
13795;SDS011;40911;51.552;9.874;2023-02-15T13:38:11;13.48;;;9.00;;
13795;SDS011;40911;51.552;9.874;2023-02-15T13:40:45;11.75;;;8.70;;
13795;SDS011;40911;51.552;9.874;2023-02-15T13:43:15;10.95;;;7.88;;
13795;SDS011;40911;51.552;9.874;2023-02-15T13:45:50;13.07;;;8.40;;
13795;SDS011;40911;51.552;9.874;2023-02-15T13:48:25;12.40;;;8.65;;
13795;SDS011;40911;51.552;9.874;2023-02-15T13:51:01;12.40;;;7.95;;
13795;SDS011;40911;51.552;9.874;2023-02-15T13:53:33;12.38;;;8.52;;
13795;SDS011;40911;51.552;9.874;2023-02-15T13:56:04;14.65;;;9.23;;
13795;SDS011;40911;51.552;9.874;2023-02-15T13:58:50;11.68;;;8.52;;
13795;SDS011;40911;51.552;9.874;2023-02-15T14:01:26;13.80;;;8.88;;
13795;SDS011;40911;51.552;9.874;2023-02-15T14:04:03;12.18;;;8.98;;
13795;SDS011;40911;51.552;9.874;2023-02-15T14:06:43;12.90;;;8.98;;
13795;SDS011;40911;51.552;9.874;2023-02-15T14:09:14;13.02;;;8.93;;
13795;SDS011;40911;51.552;9.874;2023-02-15T14:11:48;12.75;;;9.05;;
13795;SDS011;40911;51.552;9.874;2023-02-15T14:14:22;15.02;;;9.40;;
13795;SDS011;40911;51.552;9.874;2023-02-15T14:17:01;13.85;;;9.20;;
13795;SDS011;40911;51.552;9.874;2023-02-15T14:19:34;13.18;;;8.85;;
13795;SDS011;40911;51.552;9.874;2023-02-15T14:21:59;12.23;;;9.30;;
13795;SDS011;40911;51.552;9.874;2023-02-15T14:24:30;11.45;;;8.70;;
13795;SDS011;40911;51.552;9.874;2023-02-15T14:27:01;11.70;;;8.48;;
13795;SDS011;40911;51.552;9.874;2023-02-15T14:29:38;11.63;;;8.77;;
13795;SDS011;40911;51.552;9.874;2023-02-15T14:32:08;11.38;;;8.40;;
13795;SDS011;40911;51.552;9.874;2023-02-15T14:34:36;12.43;;;9.77;;
13795;SDS011;40911;51.552;9.874;2023-02-15T14:37:05;11.93;;;9.32;;
13795;SDS011;40911;51.552;9.874;2023-02-15T14:42:10;14.23;;;9.32;;
13795;SDS011;40911;51.552;9.874;2023-02-15T14:44:38;13.75;;;9.18;;
13795;SDS011;40911;51.552;9.874;2023-02-15T14:47:05;14.50;;;9.15;;
13795;SDS011;40911;51.552;9.874;2023-02-15T14:49:32;11.98;;;8.75;;
13795;SDS011;40911;51.552;9.874;2023-02-15T14:52:00;14.80;;;9.95;;
13795;SDS011;40911;51.552;9.874;2023-02-15T14:57:22;13.65;;;9.05;;
13795;SDS011;40911;51.552;9.874;2023-02-15T14:59:50;14.02;;;9.57;;
13795;SDS011;40911;51.552;9.874;2023-02-15T15:02:18;18.88;;;10.60;;
13795;SDS011;40911;51.552;9.874;2023-02-15T15:04:43;15.25;;;10.38;;